sensor_id;sensor_type;location;lat;lon;timestamp;P1;durP1;ratioP1;P2;durP2;ratioP2
5696;SDS011;2873;50.966;7.210;2023-05-29T00:02:21;8.43;;;4.10;;
5696;SDS011;2873;50.966;7.210;2023-05-29T00:04:46;7.17;;;4.10;;
5696;SDS011;2873;50.966;7.210;2023-05-29T00:07:12;8.60;;;3.60;;
5696;SDS011;2873;50.966;7.210;2023-05-29T00:09:38;7.85;;;3.90;;
5696;SDS011;2873;50.966;7.210;2023-05-29T00:12:03;7.17;;;3.87;;
5696;SDS011;2873;50.966;7.210;2023-05-29T00:14:30;6.07;;;4.03;;
5696;SDS011;2873;50.966;7.210;2023-05-29T00:16:56;9.83;;;4.10;;
5696;SDS011;2873;50.966;7.210;2023-05-29T00:19:21;9.00;;;4.17;;
5696;SDS011;2873;50.966;7.210;2023-05-29T00:21:49;11.95;;;4.68;;
5696;SDS011;2873;50.966;7.210;2023-05-29T00:24:15;8.07;;;4.45;;
5696;SDS011;2873;50.966;7.210;2023-05-29T00:26:42;8.05;;;4.28;;
5696;SDS011;2873;50.966;7.210;2023-05-29T00:29:08;8.07;;;3.90;;
5696;SDS011;2873;50.966;7.210;2023-05-29T00:31:34;6.47;;;3.90;;
5696;SDS011;2873;50.966;7.210;2023-05-29T00:34:00;10.88;;;4.05;;
5696;SDS011;2873;50.966;7.210;2023-05-29T00:36:26;7.20;;;3.80;;
5696;SDS011;2873;50.966;7.210;2023-05-29T00:38:51;5.83;;;4.20;;
5696;SDS011;2873;50.966;7.210;2023-05-29T00:41:17;9.40;;;4.23;;
5696;SDS011;2873;50.966;7.210;2023-05-29T00:43:43;7.22;;;3.63;;
5696;SDS011;2873;50.966;7.210;2023-05-29T00:46:12;5.00;;;3.80;;
5696;SDS011;2873;50.966;7.210;2023-05-29T00:48:39;8.68;;;3.92;;
5696;SDS011;2873;50.966;7.210;2023-05-29T00:51:06;8.63;;;4.40;;
5696;SDS011;2873;50.966;7.210;2023-05-29T00:53:33;6.30;;;3.95;;
5696;SDS011;2873;50.966;7.210;2023-05-29T00:55:59;5.60;;;4.03;;
5696;SDS011;2873;50.966;7.210;2023-05-29T00:58:26;9.40;;;4.70;;
5696;SDS011;2873;50.966;7.210;2023-05-29T01:00:52;7.60;;;3.95;;
5696;SDS011;2873;50.966;7.210;2023-05-29T01:03:18;7.75;;;4.32;;
5696;SDS011;2873;50.966;7.210;2023-05-29T01:05:45;5.13;;;4.10;;
5696;SDS011;2873;50.966;7.210;2023-05-29T01:08:11;8.33;;;4.23;;
5696;SDS011;2873;50.966;7.210;2023-05-29T01:10:37;10.20;;;4.60;;
5696;SDS011;2873;50.966;7.210;2023-05-29T01:13:06;6.45;;;4.13;;
5696;SDS011;2873;50.966;7.210;2023-05-29T01:18:45;6.43;;;3.92;;
5696;SDS011;2873;50.966;7.210;2023-05-29T01:24:26;6.78;;;4.32;;
5696;SDS011;2873;50.966;7.210;2023-05-29T01:27:05;6.57;;;4.00;;
5696;SDS011;2873;50.966;7.210;2023-05-29T01:29:35;10.30;;;4.88;;
5696;SDS011;2873;50.966;7.210;2023-05-29T01:32:04;6.55;;;3.90;;
5696;SDS011;2873;50.966;7.210;2023-05-29T01:34:30;7.35;;;4.28;;
5696;SDS011;2873;50.966;7.210;2023-05-29T01:36:56;6.70;;;4.40;;
5696;SDS011;2873;50.966;7.210;2023-05-29T01:39:21;7.53;;;4.20;;
5696;SDS011;2873;50.966;7.210;2023-05-29T01:41:48;8.15;;;4.72;;
5696;SDS011;2873;50.966;7.210;2023-05-29T01:44:15;7.38;;;4.00;;
5696;SDS011;2873;50.966;7.210;2023-05-29T01:46:41;9.97;;;3.90;;
5696;SDS011;2873;50.966;7.210;2023-05-29T01:49:08;6.47;;;4.00;;
5696;SDS011;2873;50.966;7.210;2023-05-29T01:51:34;5.45;;;3.90;;
5696;SDS011;2873;50.966;7.210;2023-05-29T01:54:00;7.47;;;4.20;;
5696;SDS011;2873;50.966;7.210;2023-05-29T01:56:26;7.40;;;4.10;;
5696;SDS011;2873;50.966;7.210;2023-05-29T01:58:52;7.47;;;4.32;;
5696;SDS011;2873;50.966;7.210;2023-05-29T02:01:22;9.43;;;4.45;;
5696;SDS011;2873;50.966;7.210;2023-05-29T02:03:48;8.15;;;4.20;;
5696;SDS011;2873;50.966;7.210;2023-05-29T02:06:13;5.47;;;4.10;;
5696;SDS011;2873;50.966;7.210;2023-05-29T02:08:40;7.88;;;3.72;;
5696;SDS011;2873;50.966;7.210;2023-05-29T02:11:06;5.55;;;3.50;;
5696;SDS011;2873;50.966;7.210;2023-05-29T02:13:31;7.00;;;4.00;;
5696;SDS011;2873;50.966;7.210;2023-05-29T02:15:57;3.90;;;3.50;;
5696;SDS011;2873;50.966;7.210;2023-05-29T02:18:23;12.33;;;5.10;;
5696;SDS011;2873;50.966;7.210;2023-05-29T02:20:48;5.10;;;4.13;;
5696;SDS011;2873;50.966;7.210;2023-05-29T02:23:14;8.50;;;4.13;;
5696;SDS011;2873;50.966;7.210;2023-05-29T02:25:40;8.13;;;4.28;;
5696;SDS011;2873;50.966;7.210;2023-05-29T02:28:06;8.77;;;3.90;;
5696;SDS011;2873;50.966;7.210;2023-05-29T02:30:32;6.00;;;4.00;;
5696;SDS011;2873;50.966;7.210;2023-05-29T02:32:58;7.82;;;4.32;;
5696;SDS011;2873;50.966;7.210;2023-05-29T02:35:24;5.20;;;3.60;;
5696;SDS011;2873;50.966;7.210;2023-05-29T02:37:50;8.30;;;4.10;;
5696;SDS011;2873;50.966;7.210;2023-05-29T02:40:16;11.27;;;4.10;;
5696;SDS011;2873;50.966;7.210;2023-05-29T02:42:42;5.85;;;3.90;;
5696;SDS011;2873;50.966;7.210;2023-05-29T02:45:08;9.95;;;4.32;;
5696;SDS011;2873;50.966;7.210;2023-05-29T02:47:34;9.85;;;4.55;;
5696;SDS011;2873;50.966;7.210;2023-05-29T02:50:00;5.93;;;4.00;;
5696;SDS011;2873;50.966;7.210;2023-05-29T02:52:26;10.23;;;4.30;;
5696;SDS011;2873;50.966;7.210;2023-05-29T02:54:52;7.70;;;4.60;;
5696;SDS011;2873;50.966;7.210;2023-05-29T02:57:19;6.00;;;4.00;;
5696;SDS011;2873;50.966;7.210;2023-05-29T02:59:45;9.65;;;3.90;;
5696;SDS011;2873;50.966;7.210;2023-05-29T03:02:11;11.15;;;4.55;;
5696;SDS011;2873;50.966;7.210;2023-05-29T03:04:36;5.60;;;4.40;;
5696;SDS011;2873;50.966;7.210;2023-05-29T03:07:02;6.23;;;4.10;;
5696;SDS011;2873;50.966;7.210;2023-05-29T03:09:28;5.22;;;4.05;;
5696;SDS011;2873;50.966;7.210;2023-05-29T03:11:54;9.15;;;4.32;;
5696;SDS011;2873;50.966;7.210;2023-05-29T03:14:19;8.30;;;4.57;;
5696;SDS011;2873;50.966;7.210;2023-05-29T03:16:46;8.60;;;4.70;;
5696;SDS011;2873;50.966;7.210;2023-05-29T03:19:12;10.13;;;5.30;;
5696;SDS011;2873;50.966;7.210;2023-05-29T03:21:38;11.45;;;4.68;;
5696;SDS011;2873;50.966;7.210;2023-05-29T03:24:04;9.37;;;4.80;;
5696;SDS011;2873;50.966;7.210;2023-05-29T03:26:29;11.95;;;5.05;;
5696;SDS011;2873;50.966;7.210;2023-05-29T03:28:55;8.10;;;4.47;;
5696;SDS011;2873;50.966;7.210;2023-05-29T03:31:21;17.10;;;5.13;;
5696;SDS011;2873;50.966;7.210;2023-05-29T03:33:47;9.97;;;5.40;;
5696;SDS011;2873;50.966;7.210;2023-05-29T03:36:12;8.50;;;5.43;;
5696;SDS011;2873;50.966;7.210;2023-05-29T03:38:38;12.43;;;5.57;;
5696;SDS011;2873;50.966;7.210;2023-05-29T03:41:04;10.73;;;5.65;;
5696;SDS011;2873;50.966;7.210;2023-05-29T03:43:33;17.23;;;5.18;;
5696;SDS011;2873;50.966;7.210;2023-05-29T03:45:59;14.98;;;6.13;;
5696;SDS011;2873;50.966;7.210;2023-05-29T03:48:24;13.90;;;5.57;;
5696;SDS011;2873;50.966;7.210;2023-05-29T03:50:50;11.60;;;5.32;;
5696;SDS011;2873;50.966;7.210;2023-05-29T03:53:16;9.33;;;5.20;;
5696;SDS011;2873;50.966;7.210;2023-05-29T03:55:41;12.20;;;5.47;;
5696;SDS011;2873;50.966;7.210;2023-05-29T03:58:07;11.18;;;6.53;;
5696;SDS011;2873;50.966;7.210;2023-05-29T04:00:33;12.02;;;5.97;;
5696;SDS011;2873;50.966;7.210;2023-05-29T04:02:58;16.63;;;6.57;;
5696;SDS011;2873;50.966;7.210;2023-05-29T04:05:24;12.00;;;5.83;;
5696;SDS011;2873;50.966;7.210;2023-05-29T04:07:50;13.77;;;6.47;;
5696;SDS011;2873;50.966;7.210;2023-05-29T04:10:16;12.20;;;5.97;;
5696;SDS011;2873;50.966;7.210;2023-05-29T04:12:42;12.80;;;5.90;;
5696;SDS011;2873;50.966;7.210;2023-05-29T04:15:07;15.15;;;6.25;;
5696;SDS011;2873;50.966;7.210;2023-05-29T04:17:33;11.63;;;5.70;;
5696;SDS011;2873;50.966;7.210;2023-05-29T04:19:59;15.17;;;5.87;;
5696;SDS011;2873;50.966;7.210;2023-05-29T04:22:30;12.52;;;5.70;;
5696;SDS011;2873;50.966;7.210;2023-05-29T04:24:56;13.95;;;6.07;;
5696;SDS011;2873;50.966;7.210;2023-05-29T04:27:22;15.47;;;7.07;;
5696;SDS011;2873;50.966;7.210;2023-05-29T04:29:47;16.87;;;6.60;;
5696;SDS011;2873;50.966;7.210;2023-05-29T04:32:13;16.55;;;6.57;;
5696;SDS011;2873;50.966;7.210;2023-05-29T04:34:38;13.47;;;6.27;;
5696;SDS011;2873;50.966;7.210;2023-05-29T04:37:04;14.30;;;6.53;;
5696;SDS011;2873;50.966;7.210;2023-05-29T04:39:31;13.32;;;6.07;;
5696;SDS011;2873;50.966;7.210;2023-05-29T04:41:56;14.27;;;7.20;;
5696;SDS011;2873;50.966;7.210;2023-05-29T04:44:25;16.05;;;6.50;;
5696;SDS011;2873;50.966;7.210;2023-05-29T04:46:51;16.38;;;6.10;;
5696;SDS011;2873;50.966;7.210;2023-05-29T04:49:17;14.88;;;6.60;;
5696;SDS011;2873;50.966;7.210;2023-05-29T04:51:43;10.48;;;6.10;;
5696;SDS011;2873;50.966;7.210;2023-05-29T04:54:10;14.30;;;6.70;;
5696;SDS011;2873;50.966;7.210;2023-05-29T04:56:36;15.80;;;6.88;;
5696;SDS011;2873;50.966;7.210;2023-05-29T04:59:02;14.17;;;6.20;;
5696;SDS011;2873;50.966;7.210;2023-05-29T05:01:27;15.07;;;6.30;;
5696;SDS011;2873;50.966;7.210;2023-05-29T05:03:53;15.20;;;7.20;;
5696;SDS011;2873;50.966;7.210;2023-05-29T05:06:21;14.00;;;6.30;;
5696;SDS011;2873;50.966;7.210;2023-05-29T05:08:47;14.97;;;6.20;;
5696;SDS011;2873;50.966;7.210;2023-05-29T05:11:12;13.35;;;6.45;;
5696;SDS011;2873;50.966;7.210;2023-05-29T05:13:39;16.20;;;6.70;;
5696;SDS011;2873;50.966;7.210;2023-05-29T05:16:05;16.17;;;6.30;;
5696;SDS011;2873;50.966;7.210;2023-05-29T05:18:30;15.23;;;6.90;;
5696;SDS011;2873;50.966;7.210;2023-05-29T05:20:56;16.30;;;6.30;;
5696;SDS011;2873;50.966;7.210;2023-05-29T05:23:21;13.67;;;6.37;;
5696;SDS011;2873;50.966;7.210;2023-05-29T05:25:47;15.73;;;6.60;;
5696;SDS011;2873;50.966;7.210;2023-05-29T05:28:12;13.70;;;6.47;;
5696;SDS011;2873;50.966;7.210;2023-05-29T05:30:38;12.67;;;6.63;;
5696;SDS011;2873;50.966;7.210;2023-05-29T05:33:04;20.10;;;6.37;;
5696;SDS011;2873;50.966;7.210;2023-05-29T05:35:29;13.30;;;6.43;;
5696;SDS011;2873;50.966;7.210;2023-05-29T05:37:55;13.77;;;6.65;;
5696;SDS011;2873;50.966;7.210;2023-05-29T05:40:23;15.57;;;6.45;;
5696;SDS011;2873;50.966;7.210;2023-05-29T05:42:50;11.88;;;5.90;;
5696;SDS011;2873;50.966;7.210;2023-05-29T05:45:16;10.97;;;6.50;;
5696;SDS011;2873;50.966;7.210;2023-05-29T05:47:41;12.68;;;6.00;;
5696;SDS011;2873;50.966;7.210;2023-05-29T05:50:07;18.03;;;6.20;;
5696;SDS011;2873;50.966;7.210;2023-05-29T05:52:33;13.80;;;6.25;;
5696;SDS011;2873;50.966;7.210;2023-05-29T05:54:59;14.47;;;5.83;;
5696;SDS011;2873;50.966;7.210;2023-05-29T05:57:24;17.40;;;6.10;;
5696;SDS011;2873;50.966;7.210;2023-05-29T05:59:50;12.45;;;6.20;;
5696;SDS011;2873;50.966;7.210;2023-05-29T06:02:16;15.50;;;5.90;;
5696;SDS011;2873;50.966;7.210;2023-05-29T06:04:41;12.20;;;5.80;;
5696;SDS011;2873;50.966;7.210;2023-05-29T06:07:08;15.00;;;6.97;;
5696;SDS011;2873;50.966;7.210;2023-05-29T06:09:33;11.40;;;5.93;;
5696;SDS011;2873;50.966;7.210;2023-05-29T06:11:59;13.90;;;5.90;;
5696;SDS011;2873;50.966;7.210;2023-05-29T06:14:25;15.77;;;6.03;;
5696;SDS011;2873;50.966;7.210;2023-05-29T06:16:50;13.48;;;5.90;;
5696;SDS011;2873;50.966;7.210;2023-05-29T06:19:16;15.13;;;6.60;;
5696;SDS011;2873;50.966;7.210;2023-05-29T06:21:42;17.25;;;6.15;;
5696;SDS011;2873;50.966;7.210;2023-05-29T06:24:07;13.63;;;6.03;;
5696;SDS011;2873;50.966;7.210;2023-05-29T06:26:33;14.98;;;5.70;;
5696;SDS011;2873;50.966;7.210;2023-05-29T06:28:59;12.80;;;5.07;;
5696;SDS011;2873;50.966;7.210;2023-05-29T06:31:24;14.85;;;6.00;;
5696;SDS011;2873;50.966;7.210;2023-05-29T06:33:50;13.15;;;5.40;;
5696;SDS011;2873;50.966;7.210;2023-05-29T06:36:16;14.38;;;5.15;;
5696;SDS011;2873;50.966;7.210;2023-05-29T06:38:48;12.47;;;4.93;;
5696;SDS011;2873;50.966;7.210;2023-05-29T06:41:14;11.95;;;5.47;;
5696;SDS011;2873;50.966;7.210;2023-05-29T06:43:40;12.20;;;5.23;;
5696;SDS011;2873;50.966;7.210;2023-05-29T06:46:06;11.67;;;5.10;;
5696;SDS011;2873;50.966;7.210;2023-05-29T06:48:34;12.57;;;4.88;;
5696;SDS011;2873;50.966;7.210;2023-05-29T06:51:03;11.85;;;4.80;;
5696;SDS011;2873;50.966;7.210;2023-05-29T06:53:36;12.18;;;5.10;;
5696;SDS011;2873;50.966;7.210;2023-05-29T06:56:02;11.02;;;5.55;;
5696;SDS011;2873;50.966;7.210;2023-05-29T06:58:29;13.90;;;4.60;;
5696;SDS011;2873;50.966;7.210;2023-05-29T07:00:55;9.15;;;4.72;;
5696;SDS011;2873;50.966;7.210;2023-05-29T07:03:20;18.83;;;5.60;;
5696;SDS011;2873;50.966;7.210;2023-05-29T07:05:46;12.75;;;4.63;;
5696;SDS011;2873;50.966;7.210;2023-05-29T07:08:12;12.30;;;4.80;;
5696;SDS011;2873;50.966;7.210;2023-05-29T07:10:37;14.77;;;5.33;;
5696;SDS011;2873;50.966;7.210;2023-05-29T07:13:03;12.50;;;4.70;;
5696;SDS011;2873;50.966;7.210;2023-05-29T07:15:29;12.70;;;5.07;;
5696;SDS011;2873;50.966;7.210;2023-05-29T07:17:55;14.83;;;5.13;;
5696;SDS011;2873;50.966;7.210;2023-05-29T07:20:20;10.50;;;5.10;;
5696;SDS011;2873;50.966;7.210;2023-05-29T07:22:46;11.18;;;4.90;;
5696;SDS011;2873;50.966;7.210;2023-05-29T07:25:11;8.10;;;4.40;;
5696;SDS011;2873;50.966;7.210;2023-05-29T07:27:37;11.57;;;5.20;;
5696;SDS011;2873;50.966;7.210;2023-05-29T07:30:03;14.23;;;4.80;;
5696;SDS011;2873;50.966;7.210;2023-05-29T07:32:30;10.13;;;4.32;;
5696;SDS011;2873;50.966;7.210;2023-05-29T07:34:56;10.98;;;4.95;;
5696;SDS011;2873;50.966;7.210;2023-05-29T07:37:21;16.30;;;5.27;;
5696;SDS011;2873;50.966;7.210;2023-05-29T07:39:47;11.15;;;5.10;;
5696;SDS011;2873;50.966;7.210;2023-05-29T07:42:12;14.40;;;5.10;;
5696;SDS011;2873;50.966;7.210;2023-05-29T07:44:38;15.07;;;5.60;;
5696;SDS011;2873;50.966;7.210;2023-05-29T07:47:03;12.40;;;5.40;;
5696;SDS011;2873;50.966;7.210;2023-05-29T07:49:29;11.02;;;4.30;;
5696;SDS011;2873;50.966;7.210;2023-05-29T07:51:55;11.15;;;4.80;;
5696;SDS011;2873;50.966;7.210;2023-05-29T07:54:21;8.20;;;4.40;;
5696;SDS011;2873;50.966;7.210;2023-05-29T07:56:48;9.27;;;5.10;;
5696;SDS011;2873;50.966;7.210;2023-05-29T07:59:13;12.40;;;5.20;;
5696;SDS011;2873;50.966;7.210;2023-05-29T08:01:39;9.18;;;4.25;;
5696;SDS011;2873;50.966;7.210;2023-05-29T08:04:05;10.15;;;4.97;;
5696;SDS011;2873;50.966;7.210;2023-05-29T08:06:30;11.10;;;4.60;;
5696;SDS011;2873;50.966;7.210;2023-05-29T08:08:59;9.95;;;4.32;;
5696;SDS011;2873;50.966;7.210;2023-05-29T08:11:25;9.48;;;4.78;;
5696;SDS011;2873;50.966;7.210;2023-05-29T08:13:51;12.60;;;4.90;;
5696;SDS011;2873;50.966;7.210;2023-05-29T08:16:16;9.48;;;4.65;;
5696;SDS011;2873;50.966;7.210;2023-05-29T08:18:42;10.68;;;4.05;;
5696;SDS011;2873;50.966;7.210;2023-05-29T08:21:08;14.80;;;5.10;;
5696;SDS011;2873;50.966;7.210;2023-05-29T08:23:34;10.20;;;4.80;;
5696;SDS011;2873;50.966;7.210;2023-05-29T08:26:00;10.70;;;4.60;;
5696;SDS011;2873;50.966;7.210;2023-05-29T08:28:27;9.35;;;4.35;;
5696;SDS011;2873;50.966;7.210;2023-05-29T08:30:53;13.10;;;4.70;;
5696;SDS011;2873;50.966;7.210;2023-05-29T08:33:19;10.43;;;3.92;;
5696;SDS011;2873;50.966;7.210;2023-05-29T08:35:44;11.80;;;4.40;;
5696;SDS011;2873;50.966;7.210;2023-05-29T08:38:10;11.15;;;4.38;;
5696;SDS011;2873;50.966;7.210;2023-05-29T08:40:36;11.25;;;4.45;;
5696;SDS011;2873;50.966;7.210;2023-05-29T08:45:42;12.75;;;4.78;;
5696;SDS011;2873;50.966;7.210;2023-05-29T08:48:09;8.65;;;4.28;;
5696;SDS011;2873;50.966;7.210;2023-05-29T08:50:36;9.55;;;4.32;;
5696;SDS011;2873;50.966;7.210;2023-05-29T08:53:12;9.70;;;4.38;;
5696;SDS011;2873;50.966;7.210;2023-05-29T08:55:40;12.45;;;4.13;;
5696;SDS011;2873;50.966;7.210;2023-05-29T08:58:06;9.10;;;3.93;;
5696;SDS011;2873;50.966;7.210;2023-05-29T09:00:32;8.20;;;4.20;;
5696;SDS011;2873;50.966;7.210;2023-05-29T09:02:57;9.40;;;4.28;;
5696;SDS011;2873;50.966;7.210;2023-05-29T09:05:26;9.25;;;4.40;;
5696;SDS011;2873;50.966;7.210;2023-05-29T09:07:52;12.00;;;3.70;;
5696;SDS011;2873;50.966;7.210;2023-05-29T09:10:18;9.48;;;3.67;;
5696;SDS011;2873;50.966;7.210;2023-05-29T09:12:45;8.75;;;3.90;;
5696;SDS011;2873;50.966;7.210;2023-05-29T09:15:21;10.85;;;3.60;;
5696;SDS011;2873;50.966;7.210;2023-05-29T09:17:54;9.30;;;3.47;;
5696;SDS011;2873;50.966;7.210;2023-05-29T09:20:24;12.25;;;3.75;;
5696;SDS011;2873;50.966;7.210;2023-05-29T09:22:54;6.18;;;3.30;;
5696;SDS011;2873;50.966;7.210;2023-05-29T09:25:27;9.63;;;3.45;;
5696;SDS011;2873;50.966;7.210;2023-05-29T09:27:55;11.93;;;3.10;;
5696;SDS011;2873;50.966;7.210;2023-05-29T09:33:07;8.77;;;3.88;;
5696;SDS011;2873;50.966;7.210;2023-05-29T09:35:34;9.70;;;3.40;;
5696;SDS011;2873;50.966;7.210;2023-05-29T09:38:00;6.65;;;3.53;;
5696;SDS011;2873;50.966;7.210;2023-05-29T09:40:29;8.38;;;3.13;;
5696;SDS011;2873;50.966;7.210;2023-05-29T09:42:55;6.32;;;3.35;;
5696;SDS011;2873;50.966;7.210;2023-05-29T09:45:21;9.67;;;3.10;;
5696;SDS011;2873;50.966;7.210;2023-05-29T09:47:47;14.30;;;3.70;;
5696;SDS011;2873;50.966;7.210;2023-05-29T09:50:19;10.40;;;3.40;;
5696;SDS011;2873;50.966;7.210;2023-05-29T09:52:48;6.97;;;2.70;;
5696;SDS011;2873;50.966;7.210;2023-05-29T09:55:20;11.00;;;3.00;;
5696;SDS011;2873;50.966;7.210;2023-05-29T09:57:46;7.53;;;3.60;;
5696;SDS011;2873;50.966;7.210;2023-05-29T10:00:15;10.75;;;3.00;;
5696;SDS011;2873;50.966;7.210;2023-05-29T10:02:42;9.65;;;2.90;;
5696;SDS011;2873;50.966;7.210;2023-05-29T10:05:08;10.77;;;3.33;;
5696;SDS011;2873;50.966;7.210;2023-05-29T10:07:36;8.35;;;3.55;;
5696;SDS011;2873;50.966;7.210;2023-05-29T10:10:08;10.32;;;3.70;;
5696;SDS011;2873;50.966;7.210;2023-05-29T10:12:36;9.23;;;3.30;;
5696;SDS011;2873;50.966;7.210;2023-05-29T10:15:07;12.60;;;3.70;;
5696;SDS011;2873;50.966;7.210;2023-05-29T10:17:39;9.73;;;3.50;;
5696;SDS011;2873;50.966;7.210;2023-05-29T10:20:20;7.38;;;3.03;;
5696;SDS011;2873;50.966;7.210;2023-05-29T10:22:49;9.43;;;3.17;;
5696;SDS011;2873;50.966;7.210;2023-05-29T10:25:19;15.27;;;3.50;;
5696;SDS011;2873;50.966;7.210;2023-05-29T10:27:46;10.27;;;3.20;;
5696;SDS011;2873;50.966;7.210;2023-05-29T10:30:16;6.53;;;3.08;;
5696;SDS011;2873;50.966;7.210;2023-05-29T10:38:33;9.57;;;3.10;;
5696;SDS011;2873;50.966;7.210;2023-05-29T10:43:56;7.05;;;2.80;;
5696;SDS011;2873;50.966;7.210;2023-05-29T10:49:15;8.82;;;3.28;;
5696;SDS011;2873;50.966;7.210;2023-05-29T10:51:41;8.60;;;3.40;;
5696;SDS011;2873;50.966;7.210;2023-05-29T10:54:07;7.10;;;3.10;;
5696;SDS011;2873;50.966;7.210;2023-05-29T10:56:33;6.97;;;2.97;;
5696;SDS011;2873;50.966;7.210;2023-05-29T10:59:00;8.85;;;3.33;;
5696;SDS011;2873;50.966;7.210;2023-05-29T11:01:27;8.10;;;3.67;;
5696;SDS011;2873;50.966;7.210;2023-05-29T11:04:24;6.45;;;3.40;;
5696;SDS011;2873;50.966;7.210;2023-05-29T11:06:51;20.83;;;13.02;;
5696;SDS011;2873;50.966;7.210;2023-05-29T11:14:53;16.57;;;11.67;;
5696;SDS011;2873;50.966;7.210;2023-05-29T11:17:29;31.27;;;20.52;;
5696;SDS011;2873;50.966;7.210;2023-05-29T11:25:23;13.95;;;7.63;;
5696;SDS011;2873;50.966;7.210;2023-05-29T11:27:48;13.68;;;8.73;;
5696;SDS011;2873;50.966;7.210;2023-05-29T11:30:16;25.17;;;9.57;;
5696;SDS011;2873;50.966;7.210;2023-05-29T11:32:46;13.63;;;6.22;;
5696;SDS011;2873;50.966;7.210;2023-05-29T11:35:13;10.50;;;4.70;;
5696;SDS011;2873;50.966;7.210;2023-05-29T11:37:40;10.95;;;4.90;;
5696;SDS011;2873;50.966;7.210;2023-05-29T11:40:08;10.45;;;4.45;;
5696;SDS011;2873;50.966;7.210;2023-05-29T11:42:35;8.48;;;3.97;;
5696;SDS011;2873;50.966;7.210;2023-05-29T11:45:13;9.05;;;3.60;;
5696;SDS011;2873;50.966;7.210;2023-05-29T11:47:59;7.93;;;3.30;;
5696;SDS011;2873;50.966;7.210;2023-05-29T11:50:28;9.67;;;3.47;;
5696;SDS011;2873;50.966;7.210;2023-05-29T11:52:55;8.40;;;3.40;;
5696;SDS011;2873;50.966;7.210;2023-05-29T11:55:22;11.20;;;3.30;;
5696;SDS011;2873;50.966;7.210;2023-05-29T11:57:51;10.20;;;3.70;;
5696;SDS011;2873;50.966;7.210;2023-05-29T12:00:22;10.23;;;3.22;;
5696;SDS011;2873;50.966;7.210;2023-05-29T12:02:49;9.80;;;3.75;;
5696;SDS011;2873;50.966;7.210;2023-05-29T12:05:16;5.20;;;2.83;;
5696;SDS011;2873;50.966;7.210;2023-05-29T12:10:19;8.85;;;3.47;;
5696;SDS011;2873;50.966;7.210;2023-05-29T12:12:56;8.77;;;3.17;;
5696;SDS011;2873;50.966;7.210;2023-05-29T12:15:23;9.37;;;3.40;;
5696;SDS011;2873;50.966;7.210;2023-05-29T12:17:49;8.23;;;3.47;;
5696;SDS011;2873;50.966;7.210;2023-05-29T12:20:16;10.50;;;2.75;;
5696;SDS011;2873;50.966;7.210;2023-05-29T12:22:42;7.30;;;2.80;;
5696;SDS011;2873;50.966;7.210;2023-05-29T12:25:09;9.60;;;3.90;;
5696;SDS011;2873;50.966;7.210;2023-05-29T12:27:40;8.80;;;3.60;;
5696;SDS011;2873;50.966;7.210;2023-05-29T12:30:11;9.60;;;3.23;;
5696;SDS011;2873;50.966;7.210;2023-05-29T12:32:40;8.68;;;2.95;;
5696;SDS011;2873;50.966;7.210;2023-05-29T12:35:15;6.53;;;2.70;;
5696;SDS011;2873;50.966;7.210;2023-05-29T12:37:43;7.80;;;3.00;;
5696;SDS011;2873;50.966;7.210;2023-05-29T12:40:29;4.97;;;2.90;;
5696;SDS011;2873;50.966;7.210;2023-05-29T12:43:02;8.35;;;3.00;;
5696;SDS011;2873;50.966;7.210;2023-05-29T12:45:30;5.85;;;2.97;;
5696;SDS011;2873;50.966;7.210;2023-05-29T12:48:02;8.77;;;2.90;;
5696;SDS011;2873;50.966;7.210;2023-05-29T12:53:05;6.75;;;3.60;;
5696;SDS011;2873;50.966;7.210;2023-05-29T12:55:33;9.30;;;3.22;;
5696;SDS011;2873;50.966;7.210;2023-05-29T12:58:02;7.97;;;2.90;;
5696;SDS011;2873;50.966;7.210;2023-05-29T13:00:28;6.07;;;2.60;;
5696;SDS011;2873;50.966;7.210;2023-05-29T13:02:54;7.30;;;3.00;;
5696;SDS011;2873;50.966;7.210;2023-05-29T13:05:19;5.93;;;2.90;;
5696;SDS011;2873;50.966;7.210;2023-05-29T13:07:48;8.35;;;2.90;;
5696;SDS011;2873;50.966;7.210;2023-05-29T13:10:17;8.17;;;3.10;;
5696;SDS011;2873;50.966;7.210;2023-05-29T13:12:43;9.23;;;3.10;;
5696;SDS011;2873;50.966;7.210;2023-05-29T13:15:10;10.02;;;3.38;;
5696;SDS011;2873;50.966;7.210;2023-05-29T13:17:37;9.10;;;2.90;;
5696;SDS011;2873;50.966;7.210;2023-05-29T13:20:06;10.10;;;2.97;;
5696;SDS011;2873;50.966;7.210;2023-05-29T13:22:36;9.88;;;2.70;;
5696;SDS011;2873;50.966;7.210;2023-05-29T13:25:02;8.48;;;3.35;;
5696;SDS011;2873;50.966;7.210;2023-05-29T13:27:29;9.80;;;2.90;;
5696;SDS011;2873;50.966;7.210;2023-05-29T13:29:54;8.10;;;2.50;;
5696;SDS011;2873;50.966;7.210;2023-05-29T13:32:20;7.40;;;3.10;;
5696;SDS011;2873;50.966;7.210;2023-05-29T13:34:46;6.75;;;2.90;;
5696;SDS011;2873;50.966;7.210;2023-05-29T13:37:11;6.13;;;3.10;;
5696;SDS011;2873;50.966;7.210;2023-05-29T13:39:37;7.80;;;2.50;;
5696;SDS011;2873;50.966;7.210;2023-05-29T13:42:02;6.97;;;3.10;;
5696;SDS011;2873;50.966;7.210;2023-05-29T13:44:28;9.23;;;3.10;;
5696;SDS011;2873;50.966;7.210;2023-05-29T13:46:53;7.00;;;2.90;;
5696;SDS011;2873;50.966;7.210;2023-05-29T13:49:19;8.07;;;2.80;;
5696;SDS011;2873;50.966;7.210;2023-05-29T13:51:45;5.63;;;2.60;;
5696;SDS011;2873;50.966;7.210;2023-05-29T13:54:11;5.00;;;2.75;;
5696;SDS011;2873;50.966;7.210;2023-05-29T13:56:37;7.10;;;2.73;;
5696;SDS011;2873;50.966;7.210;2023-05-29T13:59:03;8.13;;;2.90;;
5696;SDS011;2873;50.966;7.210;2023-05-29T14:01:31;6.30;;;3.10;;
5696;SDS011;2873;50.966;7.210;2023-05-29T14:03:58;5.30;;;2.90;;
5696;SDS011;2873;50.966;7.210;2023-05-29T14:06:24;8.38;;;2.95;;
5696;SDS011;2873;50.966;7.210;2023-05-29T14:08:50;5.78;;;2.90;;
5696;SDS011;2873;50.966;7.210;2023-05-29T14:11:16;5.80;;;2.85;;
5696;SDS011;2873;50.966;7.210;2023-05-29T14:13:41;6.20;;;3.10;;
5696;SDS011;2873;50.966;7.210;2023-05-29T14:16:07;9.07;;;3.07;;
5696;SDS011;2873;50.966;7.210;2023-05-29T14:18:32;8.50;;;3.07;;
5696;SDS011;2873;50.966;7.210;2023-05-29T14:20:58;6.57;;;2.80;;
5696;SDS011;2873;50.966;7.210;2023-05-29T14:23:23;8.20;;;2.90;;
5696;SDS011;2873;50.966;7.210;2023-05-29T14:25:49;6.72;;;2.72;;
5696;SDS011;2873;50.966;7.210;2023-05-29T14:28:16;6.97;;;2.53;;
5696;SDS011;2873;50.966;7.210;2023-05-29T14:30:42;7.43;;;3.07;;
5696;SDS011;2873;50.966;7.210;2023-05-29T14:33:08;5.15;;;3.00;;
5696;SDS011;2873;50.966;7.210;2023-05-29T14:35:34;9.45;;;3.25;;
5696;SDS011;2873;50.966;7.210;2023-05-29T14:37:59;5.40;;;2.90;;
5696;SDS011;2873;50.966;7.210;2023-05-29T14:40:25;7.07;;;2.80;;
5696;SDS011;2873;50.966;7.210;2023-05-29T14:42:51;5.93;;;2.72;;
5696;SDS011;2873;50.966;7.210;2023-05-29T14:45:16;6.27;;;3.10;;
5696;SDS011;2873;50.966;7.210;2023-05-29T14:47:42;10.53;;;2.90;;
5696;SDS011;2873;50.966;7.210;2023-05-29T14:50:08;7.45;;;2.50;;
5696;SDS011;2873;50.966;7.210;2023-05-29T14:52:34;4.80;;;2.80;;
5696;SDS011;2873;50.966;7.210;2023-05-29T14:55:03;7.20;;;2.60;;
5696;SDS011;2873;50.966;7.210;2023-05-29T14:57:29;6.50;;;3.00;;
5696;SDS011;2873;50.966;7.210;2023-05-29T14:59:58;4.90;;;2.80;;
5696;SDS011;2873;50.966;7.210;2023-05-29T15:02:24;5.30;;;2.60;;
5696;SDS011;2873;50.966;7.210;2023-05-29T15:04:49;6.40;;;2.87;;
5696;SDS011;2873;50.966;7.210;2023-05-29T15:07:16;4.75;;;3.03;;
5696;SDS011;2873;50.966;7.210;2023-05-29T15:09:42;6.03;;;2.55;;
5696;SDS011;2873;50.966;7.210;2023-05-29T15:12:08;7.37;;;2.40;;
5696;SDS011;2873;50.966;7.210;2023-05-29T15:14:34;12.38;;;2.92;;
5696;SDS011;2873;50.966;7.210;2023-05-29T15:17:00;7.55;;;2.60;;
5696;SDS011;2873;50.966;7.210;2023-05-29T15:19:26;9.30;;;2.90;;
5696;SDS011;2873;50.966;7.210;2023-05-29T15:21:52;6.80;;;2.90;;
5696;SDS011;2873;50.966;7.210;2023-05-29T15:24:17;9.82;;;3.55;;
5696;SDS011;2873;50.966;7.210;2023-05-29T15:26:43;6.67;;;3.50;;
5696;SDS011;2873;50.966;7.210;2023-05-29T15:29:09;7.10;;;2.90;;
5696;SDS011;2873;50.966;7.210;2023-05-29T15:31:35;7.05;;;3.10;;
5696;SDS011;2873;50.966;7.210;2023-05-29T15:34:01;8.95;;;3.00;;
5696;SDS011;2873;50.966;7.210;2023-05-29T15:36:26;5.80;;;2.80;;
5696;SDS011;2873;50.966;7.210;2023-05-29T15:38:53;8.18;;;3.03;;
5696;SDS011;2873;50.966;7.210;2023-05-29T15:41:19;6.27;;;2.70;;
5696;SDS011;2873;50.966;7.210;2023-05-29T15:43:45;5.75;;;2.53;;
5696;SDS011;2873;50.966;7.210;2023-05-29T15:46:10;7.65;;;2.90;;
5696;SDS011;2873;50.966;7.210;2023-05-29T15:48:36;6.38;;;3.05;;